createdAt,value
2019-04-25T00:00:55.481Z,23.70
2019-04-25T00:04:03.177Z,24.30
2019-04-25T00:07:11.908Z,22.27
2019-04-25T00:10:19.493Z,21.83
2019-04-25T00:13:27.411Z,17.83
2019-04-25T00:16:36.483Z,20.33
2019-04-25T00:19:44.347Z,22.53
2019-04-25T00:23:05.662Z,23.03
2019-04-25T00:26:23.628Z,24.30
2019-04-25T00:29:31.898Z,23.50
2019-04-25T00:32:42.127Z,21.03
2019-04-25T00:35:49.612Z,19.53
2019-04-25T00:38:57.558Z,22.80
2019-04-25T00:42:05.209Z,21.97
2019-04-25T00:45:14.041Z,21.67
2019-04-25T00:48:22.392Z,21.80
2019-04-25T00:51:31.532Z,19.60
2019-04-25T00:54:39.269Z,24.10
2019-04-25T00:57:48.781Z,22.40
2019-04-25T01:01:08.045Z,22.77
2019-04-25T01:04:15.671Z,23.40
2019-04-25T01:07:23.161Z,19.00
2019-04-25T01:10:32.863Z,22.10
2019-04-25T01:13:42.172Z,21.27
2019-04-25T01:16:50.657Z,22.37
2019-04-25T01:19:59.010Z,22.73
2019-04-25T01:23:06.593Z,21.40
2019-04-25T01:26:14.585Z,22.97
2019-04-25T01:29:23.432Z,20.07
2019-04-25T01:32:38.810Z,21.53
2019-04-25T01:36:14.079Z,21.83
2019-04-25T01:39:44.180Z,22.90
2019-04-25T01:43:11.049Z,23.50
2019-04-25T01:46:18.748Z,24.30
2019-04-25T01:49:26.304Z,24.27
2019-04-25T01:52:33.785Z,26.00
2019-04-25T01:55:51.768Z,24.30
2019-04-25T01:58:51.140Z,24.40
2019-04-25T02:01:58.886Z,22.40
2019-04-25T02:05:07.422Z,22.90
2019-04-25T02:08:15.371Z,23.00
2019-04-25T02:11:31.909Z,22.13
2019-04-25T02:14:41.047Z,21.17
2019-04-25T02:17:49.501Z,22.77
2019-04-25T02:20:59.972Z,21.10
2019-04-25T02:24:07.822Z,22.13
2019-04-25T02:27:15.351Z,20.10
2019-04-25T02:30:25.476Z,22.00
2019-04-25T02:33:34.027Z,21.50
2019-04-25T02:36:44.303Z,21.17
2019-04-25T02:39:50.973Z,21.40
2019-04-25T02:43:00.769Z,20.37
2019-04-25T02:46:29.116Z,20.43
2019-04-25T02:49:48.364Z,21.20
2019-04-25T02:53:14.719Z,21.03
2019-04-25T02:56:33.217Z,21.70
2019-04-25T02:59:31.322Z,22.50
2019-04-25T03:02:38.788Z,21.73
2019-04-25T03:05:48.876Z,19.20
2019-04-25T03:08:57.826Z,20.70
2019-04-25T03:12:07.526Z,20.37
2019-04-25T03:15:14.997Z,20.73
2019-04-25T03:18:24.809Z,20.20
2019-04-25T03:21:35.303Z,21.63
2019-04-25T03:24:43.079Z,18.50
2019-04-25T03:27:50.615Z,21.80
2019-04-25T03:30:59.821Z,18.47
2019-04-25T03:34:13.482Z,19.43
2019-04-25T03:37:18.015Z,19.57
2019-04-25T03:40:25.627Z,21.07
2019-04-25T03:43:33.278Z,19.97
2019-04-25T03:46:40.855Z,22.90
2019-04-25T03:49:48.419Z,21.00
2019-04-25T03:52:56.105Z,20.10
2019-04-25T03:56:05.985Z,20.23
2019-04-25T03:59:14.662Z,19.67
2019-04-25T04:02:23.369Z,21.60
2019-04-25T04:05:31.285Z,19.83
2019-04-25T04:08:39.754Z,23.97
2019-04-25T04:11:47.281Z,23.10
2019-04-25T04:14:54.729Z,20.90
2019-04-25T04:18:21.127Z,18.30
2019-04-25T04:21:43.185Z,19.97
2019-04-25T04:24:54.209Z,20.20
2019-04-25T04:28:01.909Z,22.43
2019-04-25T04:31:10.215Z,24.40
2019-04-25T04:34:17.967Z,23.00
2019-04-25T04:37:25.433Z,20.80
2019-04-25T04:40:34.409Z,24.53
2019-04-25T04:43:42.270Z,24.60
2019-04-25T04:46:49.754Z,25.20
2019-04-25T04:49:57.306Z,22.83
2019-04-25T04:53:05.461Z,21.10
2019-04-25T04:56:15.604Z,22.50
2019-04-25T04:59:24.833Z,20.63
2019-04-25T05:02:43.905Z,18.97
2019-04-25T05:06:10.942Z,17.83
2019-04-25T05:09:23.829Z,15.70
2019-04-25T05:12:31.381Z,15.33
2019-04-25T05:15:39.277Z,14.63
2019-04-25T05:18:46.904Z,13.00
2019-04-25T05:21:54.575Z,13.97
2019-04-25T05:25:03.440Z,13.17
2019-04-25T05:28:11.371Z,14.77
2019-04-25T05:31:30.540Z,15.60
2019-04-25T05:34:38.075Z,14.03
2019-04-25T05:37:45.580Z,13.80
2019-04-25T05:41:00.758Z,14.03
2019-04-25T05:44:08.303Z,12.70
2019-04-25T05:47:16.985Z,12.60
2019-04-25T05:50:25.184Z,12.30
2019-04-25T05:53:33.615Z,13.10
2019-04-25T05:56:41.341Z,12.50
2019-04-25T05:59:48.895Z,11.00
2019-04-25T06:02:56.432Z,9.20
2019-04-25T06:06:03.993Z,10.03
2019-04-25T06:09:28.142Z,8.63
2019-04-25T06:12:43.517Z,8.20
2019-04-25T06:15:53.328Z,8.27
2019-04-25T06:19:20.853Z,8.00
2019-04-25T06:22:58.993Z,8.33
2019-04-25T06:26:19.282Z,8.17
2019-04-25T06:29:15.899Z,8.80
2019-04-25T06:32:24.945Z,9.83
2019-04-25T06:35:34.501Z,7.90
2019-04-25T06:38:41.877Z,7.23
2019-04-25T06:41:49.454Z,7.40
2019-04-25T06:45:05.879Z,6.80
2019-04-25T06:48:25.911Z,7.90
2019-04-25T06:51:54.446Z,7.60
2019-04-25T06:55:03.300Z,7.40
2019-04-25T06:58:14.053Z,7.33
2019-04-25T07:01:20.106Z,7.30
2019-04-25T07:04:28.287Z,7.00
2019-04-25T07:07:36.766Z,7.07
2019-04-25T07:10:44.691Z,6.90
2019-04-25T07:13:53.700Z,6.03
2019-04-25T07:17:01.365Z,6.40
2019-04-25T07:20:10.719Z,5.77
2019-04-25T07:23:18.269Z,5.90
2019-04-25T07:26:50.955Z,5.03
2019-04-25T07:30:26.992Z,5.83
2019-04-25T07:33:29.556Z,5.90
2019-04-25T07:36:37.374Z,5.30
2019-04-25T07:39:45.018Z,6.17
2019-04-25T07:42:53.577Z,4.63
2019-04-25T07:46:01.307Z,5.53
2019-04-25T07:49:08.853Z,5.70
2019-04-25T07:52:16.392Z,6.03
2019-04-25T07:55:23.858Z,5.90
2019-04-25T07:58:49.150Z,4.80
2019-04-25T08:01:49.775Z,5.83
2019-04-25T08:05:00.351Z,5.47
2019-04-25T08:08:08.033Z,5.40
2019-04-25T08:11:16.439Z,4.57
2019-04-25T08:14:37.303Z,4.50
2019-04-25T08:18:03.939Z,4.77
2019-04-25T08:21:11.650Z,5.70
2019-04-25T08:24:19.431Z,4.80
2019-04-25T08:27:26.913Z,5.50
2019-04-25T08:30:36.284Z,5.00
2019-04-25T08:33:46.511Z,5.97
2019-04-25T08:36:54.271Z,6.07
2019-04-25T08:40:03.895Z,5.40
2019-04-25T08:43:11.140Z,4.83
2019-04-25T08:46:19.125Z,5.10
2019-04-25T08:49:34.714Z,5.00
2019-04-25T08:52:44.002Z,4.10
2019-04-25T08:56:00.091Z,4.00
2019-04-25T08:59:34.598Z,4.27
2019-04-25T09:02:41.450Z,5.10
2019-04-25T09:05:50.115Z,5.27
2019-04-25T09:08:57.702Z,4.47
2019-04-25T09:12:05.412Z,5.10
2019-04-25T09:15:14.495Z,5.00
2019-04-25T09:18:23.873Z,5.53
2019-04-25T09:21:33.216Z,6.00
2019-04-25T09:24:42.061Z,5.70
2019-04-25T09:27:50.054Z,6.43
2019-04-25T09:30:57.954Z,5.93
2019-04-25T09:34:06.167Z,6.47
2019-04-25T09:37:14.301Z,5.13
2019-04-25T09:40:24.028Z,5.37
2019-04-25T09:43:33.404Z,5.50
2019-04-25T09:46:41.929Z,5.30
2019-04-25T09:49:53.832Z,5.43
2019-04-25T09:53:02.533Z,5.63
2019-04-25T09:56:26.173Z,6.10
2019-04-25T09:59:35.333Z,4.90
2019-04-25T10:02:44.676Z,3.53
2019-04-25T10:05:53.370Z,4.90
2019-04-25T10:09:04.991Z,5.87
2019-04-25T10:12:16.879Z,4.97
2019-04-25T10:16:01.030Z,5.00
2019-04-25T10:19:09.920Z,5.67
2019-04-25T10:22:17.544Z,5.57
2019-04-25T10:25:25.096Z,5.10
2019-04-25T10:28:33.576Z,5.03
2019-04-25T10:31:41.400Z,5.37
2019-04-25T10:34:49.148Z,6.10
2019-04-25T10:37:56.824Z,5.77
2019-04-25T10:41:04.587Z,7.17
2019-04-25T10:44:13.990Z,6.03
2019-04-25T10:47:22.179Z,6.37
2019-04-25T10:50:29.742Z,5.00
2019-04-25T10:53:37.531Z,4.70
2019-04-25T10:56:47.062Z,5.47
2019-04-25T11:00:05.924Z,4.50
2019-04-25T11:03:18.761Z,4.97
2019-04-25T11:06:29.242Z,4.60
2019-04-25T11:09:37.245Z,4.87
2019-04-25T11:12:47.802Z,5.57
2019-04-25T11:15:56.174Z,5.07
2019-04-25T11:19:06.259Z,4.43
2019-04-25T11:22:15.564Z,5.70
2019-04-25T11:25:24.413Z,4.73
2019-04-25T11:28:33.747Z,4.47
2019-04-25T11:31:48.972Z,4.23
2019-04-25T11:34:57.328Z,3.67
2019-04-25T11:38:08.766Z,4.03
2019-04-25T11:41:17.628Z,4.97
2019-04-25T11:44:25.390Z,4.50
2019-04-25T11:47:33.508Z,4.20
2019-04-25T11:50:44.318Z,4.90
2019-04-25T11:53:51.606Z,5.40
2019-04-25T11:56:59.231Z,3.70
2019-04-25T12:00:07.828Z,3.80
2019-04-25T12:03:15.594Z,4.27
2019-04-25T12:06:24.332Z,4.80
2019-04-25T12:09:33.683Z,3.83
2019-04-25T12:12:41.655Z,4.57
2019-04-25T12:15:49.850Z,4.30
2019-04-25T12:18:58.646Z,4.30
2019-04-25T12:22:06.877Z,4.40
2019-04-25T12:25:15.034Z,3.53
2019-04-25T12:28:23.574Z,4.03
2019-04-25T12:31:31.488Z,3.97
2019-04-25T12:34:39.254Z,4.67
2019-04-25T12:37:48.000Z,4.70
2019-04-25T12:40:55.883Z,3.80
2019-04-25T12:44:22.242Z,4.73
2019-04-25T12:47:31.329Z,4.33
2019-04-25T12:50:39.038Z,3.73
2019-04-25T12:53:46.630Z,4.13
2019-04-25T12:56:55.628Z,5.50
2019-04-25T13:00:04.173Z,4.43
2019-04-25T13:03:14.300Z,5.00
2019-04-25T13:06:23.514Z,4.37
2019-04-25T13:09:31.548Z,3.83
2019-04-25T13:12:39.534Z,3.33
2019-04-25T13:15:47.128Z,4.20
2019-04-25T13:18:55.584Z,5.03
2019-04-25T13:22:03.206Z,4.43
2019-04-25T13:25:11.879Z,3.30
2019-04-25T13:28:31.234Z,3.30
2019-04-25T13:32:05.274Z,6.33
2019-04-25T13:35:20.340Z,4.50
2019-04-25T13:38:27.855Z,4.47
2019-04-25T13:41:35.676Z,5.17
2019-04-25T13:44:44.275Z,5.87
2019-04-25T13:47:52.074Z,3.90
2019-04-25T13:51:00.952Z,4.40
2019-04-25T13:54:08.621Z,4.80
2019-04-25T13:57:16.272Z,3.80
2019-04-25T14:00:26.163Z,4.57
2019-04-25T14:03:40.676Z,4.30
2019-04-25T14:06:48.728Z,4.60
2019-04-25T14:09:56.352Z,4.07
2019-04-25T14:13:04.632Z,4.20
2019-04-25T14:16:35.790Z,5.40
2019-04-25T14:20:12.073Z,3.73
2019-04-25T14:23:21.973Z,4.60
2019-04-25T14:26:31.294Z,4.40
2019-04-25T14:29:38.968Z,4.20
2019-04-25T14:32:46.574Z,4.23
2019-04-25T14:35:54.894Z,5.00
2019-04-25T14:39:03.458Z,4.27
2019-04-25T14:42:12.599Z,4.97
2019-04-25T14:45:22.402Z,4.90
2019-04-25T14:48:29.878Z,5.20
2019-04-25T14:51:37.514Z,5.67
2019-04-25T14:55:16.446Z,5.70
2019-04-25T14:58:26.834Z,4.07
2019-04-25T15:01:44.590Z,4.60
2019-04-25T15:04:44.018Z,5.13
2019-04-25T15:07:51.524Z,5.33
2019-04-25T15:10:59.087Z,4.03
2019-04-25T15:14:06.778Z,5.87
2019-04-25T15:17:14.448Z,4.73
2019-04-25T15:20:22.034Z,5.17
2019-04-25T15:23:29.943Z,4.73
2019-04-25T15:26:40.178Z,4.20
2019-04-25T15:29:47.789Z,4.80
2019-04-25T15:32:55.771Z,4.97
2019-04-25T15:36:15.083Z,4.67
2019-04-25T15:39:42.050Z,4.70
2019-04-25T15:43:20.590Z,5.20
2019-04-25T15:46:32.218Z,5.30
2019-04-25T15:49:40.731Z,5.70
2019-04-25T15:52:48.793Z,4.60
2019-04-25T15:55:56.509Z,4.40
2019-04-25T15:59:04.153Z,4.60
2019-04-25T16:02:13.653Z,5.23
2019-04-25T16:05:22.806Z,4.00
2019-04-25T16:08:30.917Z,4.57
2019-04-25T16:11:38.865Z,4.63
2019-04-25T16:14:47.930Z,3.93
2019-04-25T16:17:56.206Z,3.90
2019-04-25T16:21:03.876Z,5.70
2019-04-25T16:24:11.723Z,4.23
2019-04-25T16:27:19.788Z,4.50
2019-04-25T16:30:32.469Z,4.23
2019-04-25T16:33:40.000Z,4.80
2019-04-25T16:36:48.477Z,5.47
2019-04-25T16:39:56.024Z,5.23
2019-04-25T16:43:05.538Z,4.40
2019-04-25T16:46:14.101Z,4.77
2019-04-25T16:49:22.013Z,4.20
2019-04-25T16:52:30.412Z,4.27
2019-04-25T16:55:38.815Z,4.80
2019-04-25T16:58:46.325Z,4.93
2019-04-25T17:01:54.530Z,4.73
2019-04-25T17:05:02.054Z,4.80
2019-04-25T17:08:10.533Z,6.00
2019-04-25T17:11:18.915Z,5.70
2019-04-25T17:14:47.425Z,5.43
2019-04-25T17:18:15.289Z,4.63
2019-04-25T17:21:23.384Z,5.43
2019-04-25T17:24:31.232Z,5.97
2019-04-25T17:27:39.163Z,5.70
2019-04-25T17:30:49.233Z,5.23
2019-04-25T17:34:03.674Z,5.70
2019-04-25T17:37:28.095Z,5.83
2019-04-25T17:40:35.908Z,6.57
2019-04-25T17:43:43.895Z,6.10
2019-04-25T17:47:05.633Z,5.80
2019-04-25T17:50:02.997Z,5.93
2019-04-25T17:53:10.874Z,6.63
2019-04-25T17:56:18.597Z,6.90
2019-04-25T17:59:26.845Z,6.60
2019-04-25T18:02:35.678Z,7.30
2019-04-25T18:05:44.023Z,10.93
2019-04-25T18:08:51.958Z,9.77
2019-04-25T18:11:59.786Z,8.80
2019-04-25T18:15:09.553Z,9.20
2019-04-25T18:18:37.074Z,9.03
2019-04-25T18:21:45.119Z,8.57
2019-04-25T18:25:14.859Z,9.30
2019-04-25T18:28:31.629Z,9.03
2019-04-25T18:31:39.572Z,8.67
2019-04-25T18:34:56.543Z,9.00
2019-04-25T18:38:28.873Z,10.07
2019-04-25T18:41:49.667Z,11.50
2019-04-25T18:44:57.432Z,9.30
2019-04-25T18:48:05.401Z,9.87
2019-04-25T18:51:13.075Z,8.93
2019-04-25T18:54:39.683Z,7.77
2019-04-25T18:57:52.907Z,8.70
2019-04-25T19:01:18.154Z,8.80
2019-04-25T19:04:36.321Z,5.97
2019-04-25T19:07:45.233Z,7.47
2019-04-25T19:10:53.251Z,7.47
2019-04-25T19:14:00.753Z,7.80
2019-04-25T19:17:10.089Z,8.70
2019-04-25T19:20:18.091Z,8.90
2019-04-25T19:23:25.614Z,8.90
2019-04-25T19:26:33.299Z,9.37
2019-04-25T19:29:41.721Z,11.07
2019-04-25T19:32:49.544Z,9.13
2019-04-25T19:35:57.265Z,9.87
2019-04-25T19:39:06.604Z,8.93
2019-04-25T19:42:30.128Z,10.30
2019-04-25T19:45:38.668Z,10.90
2019-04-25T19:48:46.982Z,14.57
2019-04-25T19:51:54.646Z,15.57
2019-04-25T19:55:02.217Z,12.90
2019-04-25T19:58:11.045Z,10.30
2019-04-25T20:01:18.897Z,9.53
2019-04-25T20:04:36.373Z,9.87
2019-04-25T20:07:49.515Z,8.60
2019-04-25T20:11:01.467Z,8.20
2019-04-25T20:14:09.374Z,8.90
2019-04-25T20:17:17.212Z,9.10
2019-04-25T20:20:24.989Z,8.67
2019-04-25T20:23:32.931Z,8.97
2019-04-25T20:26:40.793Z,23.93
2019-04-25T20:29:48.705Z,17.13
2019-04-25T20:32:56.847Z,21.30
2019-04-25T20:36:17.072Z,11.57
2019-04-25T20:39:14.529Z,10.77
2019-04-25T20:42:22.165Z,10.10
2019-04-25T20:45:29.767Z,10.80
2019-04-25T20:48:37.249Z,11.70
2019-04-25T20:51:45.052Z,15.23
2019-04-25T20:54:53.042Z,16.57
2019-04-25T20:58:00.979Z,10.57
2019-04-25T21:01:09.593Z,10.20
2019-04-25T21:04:35.182Z,10.50
2019-04-25T21:07:43.057Z,9.37
2019-04-25T21:10:51.860Z,9.63
2019-04-25T21:14:17.241Z,9.13
2019-04-25T21:17:28.294Z,9.33
2019-04-25T21:20:36.261Z,10.50
2019-04-25T21:23:43.915Z,9.97
2019-04-25T21:26:52.643Z,10.30
2019-04-25T21:30:00.537Z,9.47
2019-04-25T21:33:09.712Z,10.77
2019-04-25T21:36:17.517Z,11.37
2019-04-25T21:39:47.760Z,9.30
2019-04-25T21:43:07.097Z,9.40
2019-04-25T21:46:15.049Z,10.23
2019-04-25T21:49:25.147Z,10.47
2019-04-25T21:52:31.909Z,10.63
2019-04-25T21:55:39.678Z,10.60
2019-04-25T21:58:48.721Z,11.40
2019-04-25T22:01:58.028Z,11.73
2019-04-25T22:05:06.131Z,11.87
2019-04-25T22:08:14.406Z,10.60
2019-04-25T22:11:22.447Z,11.50
2019-04-25T22:14:30.277Z,10.17
2019-04-25T22:17:38.281Z,8.90
2019-04-25T22:20:46.219Z,11.40
2019-04-25T22:24:03.328Z,10.37
2019-04-25T22:27:05.553Z,9.80
2019-04-25T22:30:14.869Z,11.60
2019-04-25T22:33:40.245Z,13.00
2019-04-25T22:36:47.753Z,12.33
2019-04-25T22:39:55.243Z,12.47
2019-04-25T22:43:05.990Z,14.93
2019-04-25T22:46:25.368Z,13.13
2019-04-25T22:49:22.986Z,14.73
2019-04-25T22:52:30.465Z,15.77
2019-04-25T22:55:38.116Z,14.80
2019-04-25T22:58:45.963Z,13.93
2019-04-25T23:02:11.691Z,15.33
2019-04-25T23:05:41.478Z,13.90
2019-04-25T23:08:49.117Z,14.30
2019-04-25T23:11:58.759Z,14.87
2019-04-25T23:15:08.813Z,15.50
2019-04-25T23:18:16.451Z,14.97
2019-04-25T23:21:24.469Z,17.07
2019-04-25T23:24:35.082Z,15.90
2019-04-25T23:28:10.583Z,15.40
2019-04-25T23:31:23.086Z,14.30
2019-04-25T23:34:30.706Z,15.27
2019-04-25T23:37:38.239Z,15.90
2019-04-25T23:40:45.759Z,17.03
2019-04-25T23:43:53.645Z,17.03
2019-04-25T23:47:03.297Z,15.93
2019-04-25T23:50:10.839Z,18.50
2019-04-25T23:53:18.642Z,20.07
2019-04-25T23:56:26.081Z,20.20
2019-04-25T23:59:33.963Z,19.93
